createdAt,value
2022-08-10T00:01:34.680Z,102732.47
2022-08-10T00:04:41.174Z,102728.72
2022-08-10T00:07:46.328Z,102727.88
2022-08-10T00:10:51.643Z,102721.22
2022-08-10T00:13:57.164Z,102729.16
2022-08-10T00:17:02.136Z,102730.56
2022-08-10T00:20:11.325Z,102720.16
2022-08-10T00:23:18.183Z,102722.16
2022-08-10T00:26:23.321Z,102719.31
2022-08-10T00:29:28.814Z,102719.03
2022-08-10T00:32:34.126Z,102721.28
2022-08-10T00:35:40.690Z,102720.44
2022-08-10T00:38:45.562Z,102721.16
2022-08-10T00:42:02.008Z,102718.59
2022-08-10T00:45:13.371Z,102722.44
2022-08-10T00:48:18.441Z,102726.78
2022-08-10T00:51:43.190Z,102717.59
2022-08-10T00:54:50.765Z,102725.81
2022-08-10T00:57:57.420Z,102726.16
2022-08-10T01:01:02.488Z,102719.53
2022-08-10T01:04:39.888Z,102722.47
2022-08-10T01:07:54.293Z,102722.16
2022-08-10T01:12:37.658Z,102712.22
2022-08-10T01:14:38.523Z,102712.84
2022-08-10T01:17:54.807Z,102710.91
2022-08-10T01:21:24.532Z,102700.97
2022-08-10T01:24:58.236Z,102698.31
2022-08-10T01:28:18.614Z,102705.31
2022-08-10T01:31:28.922Z,102699.66
2022-08-10T01:34:41.391Z,102695.44
2022-08-10T01:37:52.568Z,102690.97
2022-08-10T01:41:03.600Z,102693.06
2022-08-10T01:44:11.848Z,102697.00
2022-08-10T01:47:40.231Z,102695.66
2022-08-10T01:50:59.666Z,102692.81
2022-08-10T01:54:12.590Z,102692.59
2022-08-10T01:57:21.217Z,102686.16
2022-08-10T02:00:28.917Z,102685.13
2022-08-10T02:04:01.683Z,102691.13
2022-08-10T02:07:05.206Z,102692.03
2022-08-10T02:10:14.079Z,102692.22
2022-08-10T02:13:20.537Z,102698.03
2022-08-10T02:16:27.499Z,102699.78
2022-08-10T02:19:36.484Z,102706.06
2022-08-10T02:22:44.389Z,102696.72
2022-08-10T02:25:51.100Z,102692.31
2022-08-10T02:28:57.266Z,102698.94
2022-08-10T02:32:03.720Z,102697.13
2022-08-10T02:35:21.856Z,102701.72
2022-08-10T02:38:59.421Z,102703.78
2022-08-10T02:45:02.708Z,102695.56
2022-08-10T02:45:33.883Z,102692.88
2022-08-10T02:48:43.759Z,102700.56
2022-08-10T02:52:06.724Z,102687.44
2022-08-10T02:55:19.653Z,102684.16
2022-08-10T02:58:38.831Z,102677.38
2022-08-10T03:01:47.332Z,102677.38
2022-08-10T03:05:01.305Z,102668.19
2022-08-10T03:08:11.301Z,102668.19
2022-08-10T03:12:36.100Z,102659.50
2022-08-10T03:14:49.263Z,102667.00
2022-08-10T03:17:57.132Z,102671.97
2022-08-10T03:21:10.011Z,102667.53
2022-08-10T03:24:33.329Z,102665.31
2022-08-10T03:27:40.388Z,102671.97
2022-08-10T03:30:45.850Z,102672.16
2022-08-10T03:33:52.438Z,102670.78
2022-08-10T03:36:57.906Z,102664.44
2022-08-10T03:40:05.777Z,102670.94
2022-08-10T03:43:14.560Z,102668.22
2022-08-10T03:46:22.690Z,102659.34
2022-08-10T03:49:28.879Z,102665.00
2022-08-10T03:52:34.687Z,102667.88
2022-08-10T03:56:27.233Z,102665.16
2022-08-10T03:59:10.350Z,102661.22
2022-08-10T04:02:45.116Z,102660.19
2022-08-10T04:05:41.377Z,102658.53
2022-08-10T04:08:46.811Z,102659.34
2022-08-10T04:11:53.306Z,102656.81
2022-08-10T04:14:58.582Z,102661.75
2022-08-10T04:18:06.306Z,102659.38
2022-08-10T04:21:16.642Z,102661.75
2022-08-10T04:24:29.770Z,102667.56
2022-08-10T04:27:40.055Z,102662.25
2022-08-10T04:30:46.681Z,102665.00
2022-08-10T04:33:54.145Z,102659.38
2022-08-10T04:37:06.717Z,102664.16
2022-08-10T04:40:28.891Z,102664.81
2022-08-10T04:43:37.621Z,102673.84
2022-08-10T04:46:57.844Z,102672.50
2022-08-10T04:50:04.150Z,102666.16
2022-08-10T04:53:10.075Z,102662.75
2022-08-10T04:56:14.919Z,102673.69
2022-08-10T04:59:21.943Z,102664.13
2022-08-10T05:02:31.352Z,102662.91
2022-08-10T05:05:43.953Z,102668.69
2022-08-10T05:08:49.410Z,102662.38
2022-08-10T05:11:54.727Z,102657.75
2022-08-10T05:15:01.464Z,102664.38
2022-08-10T05:18:09.552Z,102661.13
2022-08-10T05:22:03.397Z,102659.69
2022-08-10T05:24:44.363Z,102659.63
2022-08-10T05:27:50.544Z,102663.88
2022-08-10T05:30:58.601Z,102665.25
2022-08-10T05:34:04.370Z,102665.72
2022-08-10T05:38:12.872Z,102669.09
2022-08-10T05:40:51.715Z,102665.56
2022-08-10T05:43:57.399Z,102670.03
2022-08-10T05:47:04.169Z,102665.00
2022-08-10T05:50:10.244Z,102665.13
2022-08-10T05:54:02.575Z,102669.69
2022-08-10T05:56:54.765Z,102672.81
2022-08-10T06:00:34.428Z,102669.63
2022-08-10T06:03:38.935Z,102670.56
2022-08-10T06:06:47.577Z,102672.97
2022-08-10T06:09:59.395Z,102675.59
2022-08-10T06:13:30.758Z,102662.53
2022-08-10T06:16:40.791Z,102664.19
2022-08-10T06:19:48.315Z,102675.09
2022-08-10T06:22:53.514Z,102673.38
2022-08-10T06:26:11.092Z,102665.97
2022-08-10T06:29:21.127Z,102662.97
2022-08-10T06:32:28.575Z,102656.16
2022-08-10T06:35:36.923Z,102660.38
2022-08-10T06:38:46.271Z,102657.72
2022-08-10T06:41:59.803Z,102664.19
2022-08-10T06:45:23.215Z,102665.75
2022-08-10T06:48:32.275Z,102655.88
2022-08-10T06:51:41.853Z,102659.91
2022-08-10T06:54:49.438Z,102658.69
2022-08-10T06:58:00.153Z,102662.47
2022-08-10T07:01:10.439Z,102664.00
2022-08-10T07:04:32.223Z,102667.41
2022-08-10T07:07:43.753Z,102673.72
2022-08-10T07:10:50.780Z,102672.22
2022-08-10T07:14:15.251Z,102678.38
2022-08-10T07:17:25.039Z,102675.38
2022-08-10T07:20:31.113Z,102672.75
2022-08-10T07:23:57.491Z,102672.25
2022-08-10T07:27:07.318Z,102675.66
2022-08-10T07:30:13.158Z,102664.22
2022-08-10T07:33:21.330Z,102659.88
2022-08-10T07:36:28.629Z,102660.09
2022-08-10T07:39:58.224Z,102661.31
2022-08-10T07:43:05.182Z,102656.78
2022-08-10T07:46:13.814Z,102657.59
2022-08-10T07:49:22.937Z,102657.16
2022-08-10T07:52:29.402Z,102653.38
2022-08-10T07:56:03.554Z,102661.03
2022-08-10T07:59:07.185Z,102660.44
2022-08-10T08:02:17.975Z,102660.66
2022-08-10T08:05:58.663Z,102661.66
2022-08-10T08:08:53.279Z,102662.66
2022-08-10T08:12:01.761Z,102663.44
2022-08-10T08:16:15.717Z,102662.88
2022-08-10T08:18:37.268Z,102662.56
2022-08-10T08:24:09.605Z,102667.25
2022-08-10T08:25:14.333Z,102661.22
2022-08-10T08:28:22.798Z,102655.41
2022-08-10T08:31:29.585Z,102652.22
2022-08-10T08:34:38.471Z,102657.28
2022-08-10T08:38:33.407Z,102652.66
2022-08-10T08:41:29.121Z,102656.28
2022-08-10T08:44:51.327Z,102660.38
2022-08-10T08:48:15.556Z,102653.66
2022-08-10T08:52:07.954Z,102661.06
2022-08-10T08:55:04.863Z,102641.59
2022-08-10T08:58:49.464Z,102643.97
2022-08-10T09:02:11.994Z,102644.84
2022-08-10T09:05:29.941Z,102632.59
2022-08-10T09:08:55.918Z,102635.00
2022-08-10T09:12:14.285Z,102628.63
2022-08-10T09:15:40.448Z,102631.41
2022-08-10T09:18:52.129Z,102627.59
2022-08-10T09:22:13.403Z,102629.31
2022-08-10T09:25:27.273Z,102624.16
2022-08-10T09:28:40.406Z,102628.09
2022-08-10T09:31:55.731Z,102622.41
2022-08-10T09:36:25.297Z,102617.34
2022-08-10T09:38:53.035Z,102608.72
2022-08-10T09:42:05.708Z,102607.91
2022-08-10T09:45:27.728Z,102601.47
2022-08-10T09:48:41.286Z,102590.28
2022-08-10T09:51:57.938Z,102595.75
2022-08-10T09:55:13.128Z,102595.34
2022-08-10T09:58:31.805Z,102592.28
2022-08-10T10:02:02.635Z,102587.47
2022-08-10T10:05:20.573Z,102577.66
2022-08-10T10:08:31.900Z,102577.22
2022-08-10T10:11:50.808Z,102587.44
2022-08-10T10:15:24.779Z,102567.84
2022-08-10T10:18:42.535Z,102574.63
2022-08-10T10:21:55.452Z,102567.50
2022-08-10T10:25:19.710Z,102572.16
2022-08-10T10:29:15.298Z,102576.16
2022-08-10T10:32:10.059Z,102561.09
2022-08-10T10:35:25.310Z,102566.72
2022-08-10T10:38:35.297Z,102566.69
2022-08-10T10:42:03.988Z,102558.06
2022-08-10T10:45:19.105Z,102553.25
2022-08-10T10:48:33.903Z,102548.03
2022-08-10T10:51:45.723Z,102542.44
2022-08-10T10:55:04.463Z,102537.16
2022-08-10T10:58:21.170Z,102534.72
2022-08-10T11:01:38.807Z,102528.81
2022-08-10T11:05:05.755Z,102525.50
2022-08-10T11:08:16.623Z,102523.53
2022-08-10T11:12:01.842Z,102519.34
2022-08-10T11:15:01.781Z,102508.13
2022-08-10T11:18:17.170Z,102509.50
2022-08-10T11:21:32.552Z,102498.75
2022-08-10T11:24:50.411Z,102500.00
2022-08-10T11:28:01.750Z,102503.50
2022-08-10T11:31:18.444Z,102500.00
2022-08-10T11:34:48.931Z,102493.34
2022-08-10T11:38:33.006Z,102500.13
2022-08-10T11:42:09.034Z,102497.34
2022-08-10T11:45:18.275Z,102483.25
2022-08-10T11:48:53.392Z,102480.56
2022-08-10T11:52:05.847Z,102483.09
2022-08-10T11:55:17.968Z,102481.75
2022-08-10T11:58:42.477Z,102489.22
2022-08-10T12:01:49.976Z,102469.88
2022-08-10T12:05:01.281Z,102468.19
2022-08-10T12:10:03.973Z,102465.91
2022-08-10T12:11:33.936Z,102455.84
2022-08-10T12:14:47.334Z,102452.56
2022-08-10T12:17:56.594Z,102458.09
2022-08-10T12:21:07.187Z,102449.50
2022-08-10T12:24:20.970Z,102455.16
2022-08-10T12:27:35.927Z,102452.28
2022-08-10T12:30:47.626Z,102446.84
2022-08-10T12:34:05.141Z,102446.38
2022-08-10T12:37:21.789Z,102440.25
2022-08-10T12:40:37.034Z,102440.19
2022-08-10T12:44:07.317Z,102435.88
2022-08-10T12:47:21.161Z,102430.09
2022-08-10T12:50:34.652Z,102439.09
2022-08-10T12:53:48.596Z,102427.41
2022-08-10T12:57:00.651Z,102423.09
2022-08-10T13:00:17.257Z,102416.22
2022-08-10T13:04:23.496Z,102424.84
2022-08-10T13:06:52.199Z,102418.81
2022-08-10T13:10:02.691Z,102416.25
2022-08-10T13:13:09.038Z,102408.25
2022-08-10T13:16:17.350Z,102414.16
2022-08-10T13:19:25.893Z,102404.13
2022-08-10T13:22:45.252Z,102403.28
2022-08-10T13:25:53.593Z,102397.75
2022-08-10T13:29:02.043Z,102390.59
2022-08-10T13:32:11.104Z,102394.75
2022-08-10T13:35:18.815Z,102382.75
2022-08-10T13:38:25.293Z,102371.03
2022-08-10T13:41:36.181Z,102374.53
2022-08-10T13:44:43.670Z,102369.97
2022-08-10T13:47:51.923Z,102369.00
2022-08-10T13:50:59.883Z,102369.81
2022-08-10T13:54:08.564Z,102360.31
2022-08-10T13:57:23.220Z,102357.03
2022-08-10T14:00:36.809Z,102353.66
2022-08-10T14:03:45.235Z,102356.53
2022-08-10T14:06:54.877Z,102354.13
2022-08-10T14:10:07.188Z,102351.47
2022-08-10T14:13:17.317Z,102347.03
2022-08-10T14:16:23.469Z,102341.53
2022-08-10T14:19:33.152Z,102333.53
2022-08-10T14:22:42.804Z,102338.09
2022-08-10T14:25:52.049Z,102325.06
2022-08-10T14:29:04.562Z,102317.66
2022-08-10T14:32:11.141Z,102317.63
2022-08-10T14:36:21.389Z,102317.56
2022-08-10T14:38:46.552Z,102311.00
2022-08-10T14:42:03.317Z,102312.84
2022-08-10T14:45:21.800Z,102308.41
2022-08-10T14:48:32.973Z,102307.66
2022-08-10T14:51:44.833Z,102307.19
2022-08-10T14:54:54.773Z,102309.06
2022-08-10T14:58:18.922Z,102309.53
2022-08-10T15:02:00.808Z,102312.22
2022-08-10T15:04:53.795Z,102301.69
2022-08-10T15:08:03.402Z,102302.88
2022-08-10T15:11:09.886Z,102288.28
2022-08-10T15:14:42.683Z,102295.81
2022-08-10T15:17:53.252Z,102302.94
2022-08-10T15:20:59.386Z,102296.22
2022-08-10T15:24:09.784Z,102292.22
2022-08-10T15:27:19.414Z,102292.72
2022-08-10T15:30:32.026Z,102293.72
2022-08-10T15:34:04.658Z,102292.84
2022-08-10T15:37:39.628Z,102280.13
2022-08-10T15:40:51.762Z,102274.16
2022-08-10T15:43:57.299Z,102272.47
2022-08-10T15:47:05.661Z,102277.84
2022-08-10T15:50:17.198Z,102280.13
2022-08-10T15:53:30.621Z,102270.13
2022-08-10T15:56:43.401Z,102276.47
2022-08-10T15:59:55.239Z,102268.09
2022-08-10T16:03:03.026Z,102270.94
2022-08-10T16:06:17.559Z,102265.69
2022-08-10T16:10:11.124Z,102269.53
2022-08-10T16:13:00.876Z,102270.16
2022-08-10T16:16:09.686Z,102262.03
2022-08-10T16:19:22.546Z,102262.59
2022-08-10T16:22:36.915Z,102257.38
2022-08-10T16:25:53.538Z,102250.34
2022-08-10T16:29:07.130Z,102251.41
2022-08-10T16:32:15.249Z,102250.41
2022-08-10T16:35:23.942Z,102249.66
2022-08-10T16:38:36.853Z,102244.28
2022-08-10T16:42:04.745Z,102246.88
2022-08-10T16:45:18.578Z,102236.38
2022-08-10T16:48:49.021Z,102242.19
2022-08-10T16:51:53.310Z,102241.69
2022-08-10T16:55:16.613Z,102237.31
2022-08-10T16:58:33.155Z,102236.00
2022-08-10T17:01:42.134Z,102231.97
2022-08-10T17:04:58.338Z,102225.66
2022-08-10T17:08:08.014Z,102231.06
2022-08-10T17:11:15.817Z,102230.59
2022-08-10T17:14:24.535Z,102229.44
2022-08-10T17:17:35.847Z,102229.25
2022-08-10T17:20:42.992Z,102232.19
2022-08-10T17:23:51.212Z,102230.06
2022-08-10T17:28:03.064Z,102229.50
2022-08-10T17:30:34.103Z,102230.72
2022-08-10T17:33:43.880Z,102231.28
2022-08-10T17:36:52.822Z,102225.13
2022-08-10T17:40:01.860Z,102228.22
2022-08-10T17:43:09.684Z,102229.31
2022-08-10T17:46:17.070Z,102230.44
2022-08-10T17:49:22.303Z,102224.00
2022-08-10T17:52:31.553Z,102225.66
2022-08-10T17:55:40.220Z,102230.41
2022-08-10T17:58:54.827Z,102230.63
2022-08-10T18:02:08.119Z,102228.38
2022-08-10T18:05:15.911Z,102219.72
2022-08-10T18:08:23.108Z,102226.41
2022-08-10T18:11:33.965Z,102227.19
2022-08-10T18:14:42.635Z,102223.25
2022-08-10T18:17:55.550Z,102242.09
2022-08-10T18:21:08.890Z,102227.00
2022-08-10T18:24:18.684Z,102238.88
2022-08-10T18:27:31.385Z,102234.16
2022-08-10T18:30:57.197Z,102240.78
2022-08-10T18:34:03.186Z,102241.22
2022-08-10T18:37:11.192Z,102244.53
2022-08-10T18:40:17.598Z,102241.91
2022-08-10T18:44:07.646Z,102234.81
2022-08-10T18:47:03.181Z,102242.78
2022-08-10T18:50:14.128Z,102244.94
2022-08-10T18:53:30.882Z,102246.25
2022-08-10T18:56:55.044Z,102250.25
2022-08-10T19:00:10.298Z,102249.28
2022-08-10T19:03:38.438Z,102250.78
2022-08-10T19:07:14.256Z,102249.28
2022-08-10T19:10:28.763Z,102248.00
2022-08-10T19:13:50.782Z,102246.19
2022-08-10T19:17:09.069Z,102248.22
2022-08-10T19:20:24.796Z,102256.78
2022-08-10T19:23:43.150Z,102256.53
2022-08-10T19:26:58.060Z,102258.16
2022-08-10T19:30:11.666Z,102255.63
2022-08-10T19:33:33.078Z,102261.91
2022-08-10T19:36:49.664Z,102266.31
2022-08-10T19:40:11.107Z,102269.34
2022-08-10T19:43:59.612Z,102266.63
2022-08-10T19:47:00.771Z,102268.97
2022-08-10T19:50:14.173Z,102275.41
2022-08-10T19:53:31.597Z,102283.59
2022-08-10T19:56:46.812Z,102273.38
2022-08-10T20:00:19.289Z,102267.56
2022-08-10T20:03:36.424Z,102272.00
2022-08-10T20:06:46.750Z,102276.25
2022-08-10T20:10:00.516Z,102283.59
2022-08-10T20:13:13.595Z,102278.53
2022-08-10T20:16:23.757Z,102279.00
2022-08-10T20:19:52.476Z,102274.09
2022-08-10T20:23:09.356Z,102281.41
2022-08-10T20:26:21.296Z,102273.81
2022-08-10T20:29:59.027Z,102274.44
2022-08-10T20:33:05.045Z,102278.72
2022-08-10T20:36:21.965Z,102280.97
2022-08-10T20:39:50.885Z,102274.72
2022-08-10T20:43:09.094Z,102274.44
2022-08-10T20:46:27.611Z,102285.13
2022-08-10T20:49:42.241Z,102277.78
2022-08-10T20:52:51.265Z,102283.38
2022-08-10T20:56:04.645Z,102276.28
2022-08-10T21:00:04.102Z,102283.41
2022-08-10T21:03:31.899Z,102282.75
2022-08-10T21:06:48.727Z,102282.88
2022-08-10T21:10:04.442Z,102275.13
2022-08-10T21:13:25.872Z,102274.38
2022-08-10T21:16:47.310Z,102282.75
2022-08-10T21:20:09.083Z,102277.09
2022-08-10T21:23:18.780Z,102270.19
2022-08-10T21:26:37.088Z,102278.16
2022-08-10T21:29:56.094Z,102278.75
2022-08-10T21:33:09.217Z,102283.28
2022-08-10T21:36:26.525Z,102277.06
2022-08-10T21:39:50.765Z,102282.88
2022-08-10T21:43:24.422Z,102280.75
2022-08-10T21:47:27.184Z,102271.84
2022-08-10T21:51:06.286Z,102274.06
2022-08-10T21:54:35.752Z,102273.88
2022-08-10T21:58:08.509Z,102269.09
2022-08-10T22:01:39.218Z,102274.06
2022-08-10T22:05:02.590Z,102272.09
2022-08-10T22:08:30.245Z,102275.88
2022-08-10T22:12:00.644Z,102276.56
2022-08-10T22:16:05.545Z,102280.34
2022-08-10T22:19:16.725Z,102278.53
2022-08-10T22:22:56.007Z,102273.50
2022-08-10T22:26:34.091Z,102272.09
2022-08-10T22:30:01.628Z,102267.25
2022-08-10T22:33:38.944Z,102272.34
2022-08-10T22:37:17.361Z,102274.72
2022-08-10T22:40:42.242Z,102273.91
2022-08-10T22:44:08.209Z,102263.31
2022-08-10T22:47:37.126Z,102271.97
2022-08-10T22:50:44.413Z,102273.28
2022-08-10T22:54:10.731Z,102270.53
2022-08-10T22:57:53.026Z,102271.34
2022-08-10T23:01:08.221Z,102270.97
2022-08-10T23:04:18.479Z,102269.53
2022-08-10T23:07:29.169Z,102278.22
2022-08-10T23:10:44.848Z,102277.38
2022-08-10T23:13:58.287Z,102275.50
2022-08-10T23:18:01.072Z,102274.84
2022-08-10T23:20:57.380Z,102268.56
2022-08-10T23:24:07.506Z,102268.78
2022-08-10T23:27:38.345Z,102273.63
2022-08-10T23:30:44.078Z,102262.69
2022-08-10T23:33:57.611Z,102262.88
2022-08-10T23:37:06.861Z,102267.56
2022-08-10T23:40:15.523Z,102266.28
2022-08-10T23:43:40.733Z,102262.91
2022-08-10T23:46:50.807Z,102271.59
2022-08-10T23:49:59.658Z,102263.56
2022-08-10T23:53:13.455Z,102271.38
2022-08-10T23:56:22.614Z,102262.47
2022-08-10T23:59:29.492Z,102261.81
